createdAt,value
2022-11-25T00:02:38.062Z,5.14
2022-11-25T00:05:40.924Z,5.03
2022-11-25T00:08:46.533Z,4.97
2022-11-25T00:11:50.625Z,5.02
2022-11-25T00:14:53.337Z,5.19
2022-11-25T00:17:56.137Z,5.22
2022-11-25T00:20:58.872Z,5.18
2022-11-25T00:24:03.809Z,5.16
2022-11-25T00:27:07.921Z,5.16
2022-11-25T00:30:11.908Z,5.09
2022-11-25T00:33:14.630Z,5.00
2022-11-25T00:36:20.834Z,4.93
2022-11-25T00:39:24.602Z,4.91
2022-11-25T00:42:46.142Z,4.78
2022-11-25T00:45:48.850Z,4.81
2022-11-25T00:48:51.677Z,4.78
2022-11-25T00:51:54.717Z,4.71
2022-11-25T00:54:57.405Z,4.91
2022-11-25T00:58:01.442Z,4.96
2022-11-25T01:01:04.352Z,5.02
2022-11-25T01:04:07.818Z,5.06
2022-11-25T01:07:10.616Z,5.13
2022-11-25T01:10:13.345Z,5.14
2022-11-25T01:13:17.420Z,5.15
2022-11-25T01:16:21.906Z,5.09
2022-11-25T01:19:24.746Z,5.18
2022-11-25T01:22:27.503Z,5.11
2022-11-25T01:25:30.223Z,5.09
2022-11-25T01:28:34.593Z,4.90
2022-11-25T01:31:37.929Z,5.04
2022-11-25T01:34:40.740Z,5.02
2022-11-25T01:37:43.472Z,4.91
2022-11-25T01:40:46.127Z,4.84
2022-11-25T01:44:12.352Z,4.82
2022-11-25T01:47:19.695Z,4.78
2022-11-25T01:50:25.827Z,4.60
2022-11-25T01:53:28.793Z,4.76
2022-11-25T01:56:37.064Z,4.81
2022-11-25T01:59:47.357Z,4.96
2022-11-25T02:02:53.184Z,4.93
2022-11-25T02:06:04.604Z,5.03
2022-11-25T02:09:09.717Z,4.99
2022-11-25T02:12:13.186Z,4.82
2022-11-25T02:15:18.263Z,4.71
2022-11-25T02:18:21.332Z,4.67
2022-11-25T02:21:32.168Z,4.54
2022-11-25T02:24:44.176Z,4.54
2022-11-25T02:27:54.144Z,4.50
2022-11-25T02:30:57.358Z,4.50
2022-11-25T02:34:00.209Z,4.43
2022-11-25T02:37:03.679Z,4.41
2022-11-25T02:40:07.637Z,4.48
2022-11-25T02:43:11.954Z,4.61
2022-11-25T02:46:21.922Z,4.55
2022-11-25T02:49:25.307Z,4.70
2022-11-25T02:52:28.033Z,4.72
2022-11-25T02:55:30.864Z,4.76
2022-11-25T02:58:35.407Z,4.64
2022-11-25T03:01:39.330Z,4.42
2022-11-25T03:04:42.178Z,4.36
2022-11-25T03:07:45.252Z,4.31
2022-11-25T03:10:48.086Z,4.43
2022-11-25T03:13:52.143Z,4.57
2022-11-25T03:16:55.012Z,4.56
2022-11-25T03:19:57.752Z,4.48
2022-11-25T03:23:00.670Z,4.39
2022-11-25T03:26:06.606Z,4.45
2022-11-25T03:29:10.735Z,4.44
2022-11-25T03:32:13.531Z,4.29
2022-11-25T03:35:17.085Z,4.31
2022-11-25T03:38:19.799Z,4.23
2022-11-25T03:41:22.504Z,4.26
2022-11-25T03:44:26.628Z,4.19
2022-11-25T03:47:29.592Z,4.04
2022-11-25T03:50:32.365Z,4.04
2022-11-25T03:53:35.129Z,4.13
2022-11-25T03:56:37.892Z,4.11
2022-11-25T03:59:42.390Z,4.30
2022-11-25T04:02:46.183Z,4.30
2022-11-25T04:05:48.953Z,4.28
2022-11-25T04:08:51.956Z,4.24
2022-11-25T04:12:13.365Z,4.30
2022-11-25T04:15:18.586Z,4.38
2022-11-25T04:18:22.032Z,4.32
2022-11-25T04:21:24.780Z,4.29
2022-11-25T04:24:28.008Z,4.08
2022-11-25T04:27:30.922Z,4.10
2022-11-25T04:30:35.231Z,4.01
2022-11-25T04:33:38.218Z,4.02
2022-11-25T04:36:40.976Z,3.94
2022-11-25T04:39:43.725Z,3.93
2022-11-25T04:42:46.467Z,3.95
2022-11-25T04:46:12.921Z,3.84
2022-11-25T04:49:14.248Z,3.91
2022-11-25T04:52:17.332Z,3.88
2022-11-25T04:55:20.151Z,3.86
2022-11-25T04:58:36.801Z,3.94
2022-11-25T05:01:41.033Z,3.93
2022-11-25T05:04:45.661Z,3.94
2022-11-25T05:07:48.611Z,3.95
2022-11-25T05:10:51.395Z,3.91
2022-11-25T05:13:54.503Z,3.88
2022-11-25T05:16:58.684Z,3.91
2022-11-25T05:20:02.127Z,3.84
2022-11-25T05:23:05.022Z,4.01
2022-11-25T05:26:07.741Z,3.96
2022-11-25T05:29:11.139Z,4.03
2022-11-25T05:32:15.522Z,3.92
2022-11-25T05:35:18.928Z,3.94
2022-11-25T05:38:21.622Z,3.83
2022-11-25T05:41:24.477Z,3.77
2022-11-25T05:44:27.471Z,3.92
2022-11-25T05:47:31.926Z,3.79
2022-11-25T05:50:35.572Z,3.81
2022-11-25T05:53:38.474Z,3.96
2022-11-25T05:56:41.205Z,3.91
2022-11-25T05:59:43.916Z,3.91
2022-11-25T06:02:51.057Z,3.86
2022-11-25T06:05:53.932Z,3.74
2022-11-25T06:08:56.883Z,3.58
2022-11-25T06:11:59.539Z,3.64
2022-11-25T06:15:02.481Z,3.62
2022-11-25T06:18:06.661Z,3.65
2022-11-25T06:21:10.868Z,3.54
2022-11-25T06:24:13.598Z,3.58
2022-11-25T06:27:16.364Z,3.70
2022-11-25T06:30:20.334Z,3.75
2022-11-25T06:33:24.388Z,3.73
2022-11-25T06:36:27.512Z,3.77
2022-11-25T06:39:30.194Z,3.72
2022-11-25T06:42:33.044Z,3.81
2022-11-25T06:45:35.714Z,3.71
2022-11-25T06:48:39.934Z,3.71
2022-11-25T06:51:42.673Z,3.83
2022-11-25T06:54:45.943Z,3.83
2022-11-25T06:57:48.639Z,3.69
2022-11-25T07:00:51.389Z,3.82
2022-11-25T07:03:57.320Z,3.81
2022-11-25T07:07:00.037Z,3.80
2022-11-25T07:10:03.190Z,3.82
2022-11-25T07:13:05.977Z,3.77
2022-11-25T07:16:09.330Z,3.81
2022-11-25T07:19:15.554Z,3.86
2022-11-25T07:22:18.236Z,3.81
2022-11-25T07:25:21.521Z,3.81
2022-11-25T07:28:26.945Z,3.88
2022-11-25T07:31:33.886Z,4.02
2022-11-25T07:34:38.600Z,3.99
2022-11-25T07:37:41.453Z,3.97
2022-11-25T07:40:44.149Z,4.03
2022-11-25T07:43:47.719Z,3.78
2022-11-25T07:46:51.639Z,3.99
2022-11-25T07:49:55.783Z,3.97
2022-11-25T07:52:58.718Z,4.05
2022-11-25T07:56:03.087Z,4.19
2022-11-25T07:59:06.657Z,4.19
2022-11-25T08:02:12.169Z,4.34
2022-11-25T08:05:16.691Z,4.26
2022-11-25T08:08:19.633Z,4.26
2022-11-25T08:11:25.113Z,4.29
2022-11-25T08:14:27.802Z,4.36
2022-11-25T08:17:30.665Z,4.49
2022-11-25T08:20:34.701Z,4.64
2022-11-25T08:23:39.620Z,4.65
2022-11-25T08:26:42.339Z,4.72
2022-11-25T08:29:45.072Z,4.69
2022-11-25T08:32:48.021Z,4.69
2022-11-25T08:35:55.611Z,4.67
2022-11-25T08:39:00.645Z,4.74
2022-11-25T08:42:04.724Z,4.79
2022-11-25T08:45:08.907Z,4.81
2022-11-25T08:48:11.629Z,4.86
2022-11-25T08:51:17.825Z,5.09
2022-11-25T08:54:20.589Z,5.07
2022-11-25T08:57:23.314Z,5.26
2022-11-25T09:00:26.130Z,5.40
2022-11-25T09:03:28.996Z,5.48
2022-11-25T09:06:33.114Z,5.35
2022-11-25T09:09:36.190Z,5.47
2022-11-25T09:12:39.431Z,5.49
2022-11-25T09:15:42.265Z,5.57
2022-11-25T09:18:45.726Z,5.49
2022-11-25T09:21:49.894Z,5.61
2022-11-25T09:24:52.623Z,5.56
2022-11-25T09:27:56.390Z,5.58
2022-11-25T09:30:59.149Z,5.54
2022-11-25T09:34:02.165Z,5.56
2022-11-25T09:37:06.311Z,5.45
2022-11-25T09:40:15.366Z,5.57
2022-11-25T09:43:52.700Z,5.63
2022-11-25T09:47:05.031Z,5.63
2022-11-25T09:50:18.193Z,5.59
2022-11-25T09:53:34.925Z,5.52
2022-11-25T09:56:43.575Z,5.45
2022-11-25T09:59:54.038Z,5.50
2022-11-25T10:03:05.896Z,5.60
2022-11-25T10:06:15.925Z,5.61
2022-11-25T10:09:25.815Z,5.68
2022-11-25T10:12:33.530Z,5.67
2022-11-25T10:15:41.619Z,5.76
2022-11-25T10:18:54.174Z,5.70
2022-11-25T10:21:56.975Z,5.52
2022-11-25T10:25:03.669Z,5.36
2022-11-25T10:28:17.676Z,5.37
2022-11-25T10:31:26.459Z,5.34
2022-11-25T10:34:36.696Z,5.31
2022-11-25T10:37:43.758Z,5.36
2022-11-25T10:40:51.515Z,5.28
2022-11-25T10:43:54.418Z,5.44
2022-11-25T10:47:16.851Z,5.36
2022-11-25T10:50:29.206Z,5.36
2022-11-25T10:53:31.937Z,5.38
2022-11-25T10:56:44.044Z,5.46
2022-11-25T10:59:57.836Z,5.41
2022-11-25T11:03:13.657Z,5.50
2022-11-25T11:06:31.987Z,5.38
2022-11-25T11:09:37.551Z,5.53
2022-11-25T11:12:52.936Z,5.63
2022-11-25T11:15:55.800Z,5.68
2022-11-25T11:18:59.424Z,5.67
2022-11-25T11:22:17.187Z,5.89
2022-11-25T11:25:30.138Z,5.99
2022-11-25T11:28:41.559Z,5.94
2022-11-25T11:31:48.133Z,5.98
2022-11-25T11:35:04.229Z,6.18
2022-11-25T11:38:24.544Z,6.33
2022-11-25T11:41:37.648Z,6.41
2022-11-25T11:45:02.184Z,6.55
2022-11-25T11:48:13.706Z,6.49
2022-11-25T11:51:25.899Z,6.57
2022-11-25T11:54:36.360Z,6.69
2022-11-25T11:57:47.998Z,6.66
2022-11-25T12:01:02.225Z,6.67
2022-11-25T12:04:16.201Z,6.73
2022-11-25T12:07:24.414Z,6.80
2022-11-25T12:10:31.102Z,6.78
2022-11-25T12:13:42.244Z,6.82
2022-11-25T12:16:51.660Z,6.85
2022-11-25T12:19:59.630Z,6.86
2022-11-25T12:23:07.148Z,6.80
2022-11-25T12:26:14.794Z,6.82
2022-11-25T12:29:25.472Z,6.80
2022-11-25T12:32:56.082Z,6.79
2022-11-25T12:36:04.905Z,6.63
2022-11-25T12:39:19.941Z,6.72
2022-11-25T12:42:26.355Z,6.67
2022-11-25T12:45:29.651Z,6.65
2022-11-25T12:48:38.334Z,6.61
2022-11-25T12:51:51.032Z,6.74
2022-11-25T12:55:13.695Z,6.69
2022-11-25T12:58:46.248Z,6.80
2022-11-25T13:02:02.606Z,6.88
2022-11-25T13:05:41.042Z,6.87
2022-11-25T13:08:58.298Z,6.76
2022-11-25T13:12:11.828Z,6.77
2022-11-25T13:15:25.135Z,6.71
2022-11-25T13:18:32.813Z,6.78
2022-11-25T13:21:37.280Z,6.80
2022-11-25T13:24:42.210Z,6.86
2022-11-25T13:27:58.841Z,6.89
2022-11-25T13:31:23.085Z,6.94
2022-11-25T13:34:29.123Z,7.08
2022-11-25T13:37:40.875Z,7.02
2022-11-25T13:40:57.254Z,7.11
2022-11-25T13:44:05.448Z,7.05
2022-11-25T13:47:32.059Z,7.07
2022-11-25T13:50:55.302Z,7.11
2022-11-25T13:54:02.011Z,7.12
2022-11-25T13:57:26.356Z,7.14
2022-11-25T14:00:51.250Z,7.09
2022-11-25T14:03:57.571Z,7.15
2022-11-25T14:07:14.453Z,7.13
2022-11-25T14:10:45.650Z,7.21
2022-11-25T14:14:17.786Z,7.11
2022-11-25T14:17:36.217Z,7.15
2022-11-25T14:20:46.315Z,7.16
2022-11-25T14:23:59.341Z,7.16
2022-11-25T14:27:05.617Z,7.21
2022-11-25T14:30:10.685Z,7.26
2022-11-25T14:33:18.250Z,7.19
2022-11-25T14:36:24.088Z,7.21
2022-11-25T14:39:32.826Z,7.28
2022-11-25T14:42:40.552Z,7.24
2022-11-25T14:45:43.871Z,7.26
2022-11-25T14:48:55.367Z,7.24
2022-11-25T14:51:58.439Z,7.31
2022-11-25T14:55:03.124Z,7.37
2022-11-25T14:58:07.367Z,7.36
2022-11-25T15:01:20.891Z,7.35
2022-11-25T15:04:25.353Z,7.34
2022-11-25T15:07:31.325Z,7.30
2022-11-25T15:10:40.222Z,7.25
2022-11-25T15:13:46.752Z,7.21
2022-11-25T15:16:49.676Z,7.22
2022-11-25T15:19:53.637Z,7.21
2022-11-25T15:22:56.381Z,7.19
2022-11-25T15:25:59.400Z,7.22
2022-11-25T15:29:11.795Z,7.15
2022-11-25T15:32:18.092Z,7.23
2022-11-25T15:35:23.166Z,6.97
2022-11-25T15:38:45.005Z,7.04
2022-11-25T15:41:50.020Z,6.99
2022-11-25T15:44:57.501Z,6.93
2022-11-25T15:48:00.593Z,6.89
2022-11-25T15:51:06.111Z,6.83
2022-11-25T15:54:18.529Z,6.88
2022-11-25T15:57:25.683Z,6.84
2022-11-25T16:00:30.059Z,6.92
2022-11-25T16:03:33.583Z,6.93
2022-11-25T16:06:36.398Z,6.94
2022-11-25T16:09:51.686Z,6.90
2022-11-25T16:13:21.811Z,6.85
2022-11-25T16:16:29.109Z,6.87
2022-11-25T16:19:38.046Z,6.87
2022-11-25T16:22:41.315Z,6.89
2022-11-25T16:25:49.570Z,6.84
2022-11-25T16:28:55.658Z,6.78
2022-11-25T16:32:00.519Z,6.73
2022-11-25T16:35:15.027Z,6.66
2022-11-25T16:38:18.058Z,6.68
2022-11-25T16:41:23.536Z,6.64
2022-11-25T16:44:28.434Z,6.62
2022-11-25T16:47:32.540Z,6.65
2022-11-25T16:50:35.317Z,6.74
2022-11-25T16:53:38.180Z,6.74
2022-11-25T16:56:42.979Z,6.73
2022-11-25T16:59:47.395Z,6.80
2022-11-25T17:02:51.867Z,6.75
2022-11-25T17:05:55.328Z,6.68
2022-11-25T17:08:58.329Z,6.76
2022-11-25T17:12:02.376Z,6.82
2022-11-25T17:15:09.206Z,6.74
2022-11-25T17:18:16.949Z,6.72
2022-11-25T17:21:19.849Z,6.77
2022-11-25T17:24:24.410Z,6.76
2022-11-25T17:27:30.599Z,6.68
2022-11-25T17:30:33.673Z,6.80
2022-11-25T17:33:38.004Z,6.63
2022-11-25T17:36:40.974Z,6.69
2022-11-25T17:39:43.998Z,6.68
2022-11-25T17:42:50.045Z,6.65
2022-11-25T17:45:53.107Z,6.63
2022-11-25T17:48:57.204Z,6.65
2022-11-25T17:51:59.994Z,6.66
2022-11-25T17:55:03.613Z,6.66
2022-11-25T17:58:08.646Z,6.41
2022-11-25T18:01:11.654Z,6.47
2022-11-25T18:04:23.317Z,6.54
2022-11-25T18:07:26.231Z,6.57
2022-11-25T18:10:29.244Z,6.51
2022-11-25T18:13:37.032Z,6.47
2022-11-25T18:16:41.588Z,6.69
2022-11-25T18:19:51.334Z,6.78
2022-11-25T18:22:58.240Z,6.66
2022-11-25T18:26:03.334Z,6.56
2022-11-25T18:29:08.270Z,6.59
2022-11-25T18:32:11.727Z,6.51
2022-11-25T18:35:21.098Z,6.43
2022-11-25T18:38:24.308Z,6.44
2022-11-25T18:41:27.488Z,6.60
2022-11-25T18:44:30.486Z,6.66
2022-11-25T18:47:33.217Z,6.66
2022-11-25T18:50:37.313Z,6.59
2022-11-25T18:53:40.051Z,6.53
2022-11-25T18:56:43.372Z,6.43
2022-11-25T18:59:52.728Z,6.35
2022-11-25T19:03:17.310Z,6.22
2022-11-25T19:06:21.518Z,6.13
2022-11-25T19:09:24.411Z,6.08
2022-11-25T19:12:27.531Z,6.10
2022-11-25T19:15:30.486Z,6.09
2022-11-25T19:18:33.633Z,6.06
2022-11-25T19:21:38.272Z,6.08
2022-11-25T19:24:41.174Z,6.16
2022-11-25T19:27:50.100Z,6.16
2022-11-25T19:30:59.015Z,6.22
2022-11-25T19:34:02.730Z,6.16
2022-11-25T19:37:07.002Z,6.24
2022-11-25T19:40:14.954Z,6.30
2022-11-25T19:43:17.696Z,6.41
2022-11-25T19:46:30.132Z,6.48
2022-11-25T19:49:39.865Z,6.52
2022-11-25T19:52:45.382Z,6.48
2022-11-25T19:55:48.983Z,6.52
2022-11-25T19:58:52.873Z,6.43
2022-11-25T20:01:55.630Z,6.33
2022-11-25T20:04:58.974Z,6.33
2022-11-25T20:08:03.315Z,6.37
2022-11-25T20:11:06.645Z,6.41
2022-11-25T20:14:09.453Z,6.51
2022-11-25T20:17:22.413Z,6.50
2022-11-25T20:20:28.094Z,6.48
2022-11-25T20:23:43.000Z,6.40
2022-11-25T20:26:48.900Z,6.37
2022-11-25T20:29:51.830Z,6.27
2022-11-25T20:32:54.800Z,6.30
2022-11-25T20:36:04.361Z,6.26
2022-11-25T20:39:08.674Z,6.29
2022-11-25T20:42:13.443Z,6.28
2022-11-25T20:45:18.196Z,6.32
2022-11-25T20:48:20.994Z,6.31
2022-11-25T20:51:25.049Z,6.19
2022-11-25T20:54:30.612Z,6.26
2022-11-25T20:57:36.410Z,6.33
2022-11-25T21:00:39.377Z,6.39
2022-11-25T21:03:42.619Z,6.44
2022-11-25T21:06:45.900Z,6.46
2022-11-25T21:09:50.003Z,6.48
2022-11-25T21:12:53.186Z,6.50
2022-11-25T21:15:56.876Z,6.60
2022-11-25T21:18:59.656Z,6.62
2022-11-25T21:22:03.235Z,6.67
2022-11-25T21:25:08.581Z,6.65
2022-11-25T21:28:17.703Z,6.74
2022-11-25T21:31:25.768Z,6.82
2022-11-25T21:34:28.720Z,6.80
2022-11-25T21:37:35.681Z,6.80
2022-11-25T21:40:41.858Z,6.79
2022-11-25T21:43:46.212Z,6.70
2022-11-25T21:46:49.092Z,6.63
2022-11-25T21:49:52.500Z,6.56
2022-11-25T21:52:55.281Z,6.52
2022-11-25T21:55:59.297Z,6.50
2022-11-25T21:59:03.771Z,6.51
2022-11-25T22:02:17.345Z,6.46
2022-11-25T22:05:26.559Z,6.43
2022-11-25T22:08:29.344Z,6.44
2022-11-25T22:11:36.906Z,6.29
2022-11-25T22:14:41.121Z,6.23
2022-11-25T22:17:44.743Z,6.14
2022-11-25T22:20:53.160Z,6.01
2022-11-25T22:23:56.293Z,5.90
2022-11-25T22:27:00.531Z,5.85
2022-11-25T22:30:04.623Z,5.83
2022-11-25T22:33:07.481Z,5.80
2022-11-25T22:36:29.612Z,5.75
2022-11-25T22:39:32.283Z,5.71
2022-11-25T22:42:36.676Z,5.71
2022-11-25T22:45:39.510Z,5.71
2022-11-25T22:48:42.484Z,5.82
2022-11-25T22:51:45.260Z,5.74
2022-11-25T22:54:47.964Z,5.77
2022-11-25T22:57:54.185Z,5.74
2022-11-25T23:00:58.054Z,5.83
2022-11-25T23:04:00.946Z,5.78
2022-11-25T23:07:03.679Z,5.72
2022-11-25T23:10:14.059Z,5.67
2022-11-25T23:13:20.453Z,5.57
2022-11-25T23:16:23.349Z,5.50
2022-11-25T23:19:26.112Z,5.44
2022-11-25T23:22:28.893Z,5.37
2022-11-25T23:25:31.633Z,5.32
2022-11-25T23:28:36.164Z,5.28
2022-11-25T23:31:40.654Z,5.24
2022-11-25T23:34:43.526Z,5.21
2022-11-25T23:37:54.608Z,5.13
2022-11-25T23:40:57.354Z,5.08
2022-11-25T23:44:11.547Z,5.02
2022-11-25T23:47:17.819Z,4.84
2022-11-25T23:50:26.830Z,4.91
2022-11-25T23:53:31.989Z,4.90
2022-11-25T23:56:34.791Z,4.90
2022-11-25T23:59:38.834Z,4.87
